GBYD

Banjul International Airport

Banjul, Gambia
METAR GBYD 181600Z 26005KT CAVOK 33/25 Q1007
Observed Flight Rules
Oct-18 @ 16:00 UTC (13 minutes ago) Visual Flight Rules
Wind Visibility Clouds
260° at 5 knots 10,000+ meters
  • Clear skies
Temperatures Readings
Current 33°C / 91°F
Dewpoint 25°C / 77°F
Humidity 63%
Altimeter 29.73" Hg
Pressure 1007 hPa
Elevation 36
METAR GBYD 181600Z 26005KT CAVOK 33/25 Q1007
Observed Flight Rules
Oct-18 @ 16:00 UTC
(13 minutes ago)
VFR
Wind Visibility
260° at 5 knots 10,000+ meters
Clouds
  • Clear skies
Temperature Dewpoint
33°C / 91°F 25°C / 77°F
Humidity Altimeter Pressure
63% 29.73" Hg 1007 hPa